createdAt,value
2019-04-07T00:01:32.082Z,98762.67
2019-04-07T00:04:02.861Z,98759.09
2019-04-07T00:06:33.154Z,98766.96
2019-04-07T00:09:03.891Z,98767.61
2019-04-07T00:11:34.924Z,98767.95
2019-04-07T00:14:07.134Z,98768.91
2019-04-07T00:16:40.303Z,98759.81
2019-04-07T00:19:12.576Z,98766.45
2019-04-07T00:21:42.892Z,98766.31
2019-04-07T00:24:13.617Z,98762.93
2019-04-07T00:26:44.738Z,98765.82
2019-04-07T00:29:15.571Z,98765.16
2019-04-07T00:31:46.248Z,98768.16
2019-04-07T00:34:16.647Z,98762.64
2019-04-07T00:36:46.903Z,98762.36
2019-04-07T00:39:17.965Z,98759.37
2019-04-07T00:41:48.403Z,98770.67
2019-04-07T00:44:18.973Z,98772.87
2019-04-07T00:46:49.891Z,98771.73
2019-04-07T00:49:21.251Z,98765.81
2019-04-07T00:51:52.952Z,98770.70
2019-04-07T00:54:23.840Z,98769.46
2019-04-07T00:56:54.490Z,98766.13
2019-04-07T00:59:27.051Z,98766.28
2019-04-07T01:01:57.999Z,98767.90
2019-04-07T01:04:29.737Z,98767.95
2019-04-07T01:07:00.241Z,98769.61
2019-04-07T01:09:31.063Z,98768.36
2019-04-07T01:12:02.855Z,98770.55
2019-04-07T01:14:33.620Z,98776.33
2019-04-07T01:17:04.122Z,98771.32
2019-04-07T01:19:34.482Z,98772.27
2019-04-07T01:22:05.377Z,98778.28
2019-04-07T01:24:36.397Z,98776.98
2019-04-07T01:27:06.830Z,98772.56
2019-04-07T01:29:37.090Z,98776.00
2019-04-07T01:32:08.586Z,98778.35
2019-04-07T01:34:39.619Z,98775.84
2019-04-07T01:37:09.941Z,98776.47
2019-04-07T01:39:40.299Z,98785.29
2019-04-07T01:42:16.547Z,98781.28
2019-04-07T01:45:05.159Z,98778.69
2019-04-07T01:47:50.824Z,98779.52
2019-04-07T01:50:38.648Z,98777.80
2019-04-07T01:53:33.596Z,98777.06
2019-04-07T01:56:26.144Z,98769.83
2019-04-07T01:59:03.693Z,98772.48
2019-04-07T02:01:55.616Z,98771.08
2019-04-07T02:04:44.833Z,98772.65
2019-04-07T02:07:32.872Z,98768.09
2019-04-07T02:10:25.224Z,98770.27
2019-04-07T02:13:18.713Z,98777.80
2019-04-07T02:16:15.663Z,98780.27
2019-04-07T02:19:03.589Z,98775.25
2019-04-07T02:22:04.783Z,98788.16
2019-04-07T02:24:57.499Z,98785.25
2019-04-07T02:27:45.867Z,98786.73
2019-04-07T02:30:25.749Z,98782.66
2019-04-07T02:33:13.275Z,98783.63
2019-04-07T02:36:16.068Z,98783.81
2019-04-07T02:38:45.584Z,98780.98
2019-04-07T02:41:21.109Z,98784.88
2019-04-07T02:44:16.287Z,98787.23
2019-04-07T02:47:06.388Z,98781.44
2019-04-07T02:50:14.176Z,98784.59
2019-04-07T02:53:13.382Z,98779.09
2019-04-07T02:55:55.436Z,98779.50
2019-04-07T02:58:37.968Z,98780.65
2019-04-07T03:01:18.297Z,98779.64
2019-04-07T03:04:09.459Z,98784.09
2019-04-07T03:06:53.572Z,98784.17
2019-04-07T03:09:47.425Z,98791.17
2019-04-07T03:12:41.417Z,98794.97
2019-04-07T03:15:21.514Z,98793.67
2019-04-07T03:17:59.327Z,98797.06
2019-04-07T03:20:45.468Z,98801.79
2019-04-07T03:23:25.289Z,98805.17
2019-04-07T03:26:20.527Z,98806.14
2019-04-07T03:29:08.550Z,98812.58
2019-04-07T03:32:08.500Z,98811.66
2019-04-07T03:34:44.992Z,98810.08
2019-04-07T03:37:39.749Z,98804.81
2019-04-07T03:40:30.511Z,98809.12
2019-04-07T03:43:09.453Z,98807.03
2019-04-07T03:45:55.482Z,98808.04
2019-04-07T03:48:32.935Z,98812.58
2019-04-07T03:51:08.953Z,98806.28
2019-04-07T03:53:48.862Z,98803.45
2019-04-07T03:56:38.271Z,98808.77
2019-04-07T03:59:27.596Z,98807.94
2019-04-07T04:02:11.012Z,98803.66
2019-04-07T04:05:05.166Z,98808.13
2019-04-07T04:07:44.208Z,98813.63
2019-04-07T04:10:42.640Z,98814.05
2019-04-07T04:13:23.381Z,98821.09
2019-04-07T04:15:56.867Z,98820.17
2019-04-07T04:18:28.641Z,98807.16
2019-04-07T04:20:59.556Z,98810.11
2019-04-07T04:23:30.287Z,98808.64
2019-04-07T04:26:00.940Z,98814.34
2019-04-07T04:28:31.836Z,98814.42
2019-04-07T04:31:02.067Z,98814.62
2019-04-07T04:33:33.029Z,98812.84
2019-04-07T04:36:03.389Z,98812.79
2019-04-07T04:38:33.735Z,98817.94
2019-04-07T04:41:04.833Z,98817.08
2019-04-07T04:43:36.045Z,98820.42
2019-04-07T04:46:10.657Z,98821.68
2019-04-07T04:48:38.960Z,98820.63
2019-04-07T04:51:09.818Z,98815.34
2019-04-07T04:53:39.987Z,98815.05
2019-04-07T04:56:10.723Z,98819.58
2019-04-07T04:58:40.946Z,98822.92
2019-04-07T05:01:11.883Z,98824.72
2019-04-07T05:03:42.829Z,98824.16
2019-04-07T05:06:13.384Z,98823.66
2019-04-07T05:08:44.365Z,98825.34
2019-04-07T05:11:14.751Z,98825.95
2019-04-07T05:13:44.999Z,98831.19
2019-04-07T05:16:15.262Z,98832.17
2019-04-07T05:18:46.683Z,98837.13
2019-04-07T05:21:16.982Z,98837.91
2019-04-07T05:23:47.310Z,98834.58
2019-04-07T05:26:17.487Z,98844.36
2019-04-07T05:28:48.317Z,98839.11
2019-04-07T05:31:18.771Z,98844.89
2019-04-07T05:33:49.026Z,98840.94
2019-04-07T05:36:20.267Z,98843.93
2019-04-07T05:38:50.879Z,98840.39
2019-04-07T05:41:21.980Z,98841.42
2019-04-07T05:43:52.491Z,98846.83
2019-04-07T05:46:22.868Z,98850.16
2019-04-07T05:48:53.163Z,98850.83
2019-04-07T05:51:23.693Z,98856.80
2019-04-07T05:53:54.278Z,98854.92
2019-04-07T05:56:28.111Z,98861.67
2019-04-07T05:58:57.122Z,98867.08
2019-04-07T06:01:27.419Z,98865.91
2019-04-07T06:03:57.787Z,98879.41
2019-04-07T06:06:27.998Z,98875.63
2019-04-07T06:08:58.683Z,98883.12
2019-04-07T06:11:31.276Z,98879.70
2019-04-07T06:14:00.890Z,98879.98
2019-04-07T06:16:32.198Z,98882.25
2019-04-07T06:19:06.969Z,98887.36
2019-04-07T06:21:34.609Z,98883.73
2019-04-07T06:24:04.945Z,98882.91
2019-04-07T06:26:36.997Z,98879.02
2019-04-07T06:29:07.624Z,98881.56
2019-04-07T06:31:38.319Z,98879.52
2019-04-07T06:34:10.496Z,98887.99
2019-04-07T06:36:41.016Z,98875.81
2019-04-07T06:39:11.267Z,98874.79
2019-04-07T06:41:42.210Z,98878.78
2019-04-07T06:44:18.447Z,98876.77
2019-04-07T06:47:08.526Z,98882.05
2019-04-07T06:50:14.165Z,98889.66
2019-04-07T06:53:00.941Z,98892.50
2019-04-07T06:55:53.987Z,98889.19
2019-04-07T06:58:59.425Z,98893.02
2019-04-07T07:01:47.691Z,98892.62
2019-04-07T07:04:30.093Z,98886.65
2019-04-07T07:07:31.418Z,98899.36
2019-04-07T07:10:17.038Z,98897.30
2019-04-07T07:13:28.518Z,98898.27
2019-04-07T07:16:05.184Z,98896.14
2019-04-07T07:18:54.723Z,98896.41
2019-04-07T07:21:48.972Z,98897.08
2019-04-07T07:24:24.412Z,98901.66
2019-04-07T07:26:51.184Z,98900.80
2019-04-07T07:29:21.425Z,98898.06
2019-04-07T07:31:53.068Z,98898.41
2019-04-07T07:34:23.940Z,98901.97
2019-04-07T07:36:56.573Z,98902.27
2019-04-07T07:39:27.145Z,98907.36
2019-04-07T07:41:58.337Z,98902.06
2019-04-07T07:44:28.949Z,98905.74
2019-04-07T07:46:59.348Z,98909.66
2019-04-07T07:49:33.506Z,98904.73
2019-04-07T07:52:02.656Z,98904.72
2019-04-07T07:54:33.452Z,98907.16
2019-04-07T07:57:03.700Z,98910.53
2019-04-07T07:59:38.069Z,98908.35
2019-04-07T08:02:06.429Z,98916.57
2019-04-07T08:04:36.736Z,98912.78
2019-04-07T08:07:09.021Z,98916.10
2019-04-07T08:09:40.273Z,98923.53
2019-04-07T08:12:10.630Z,98922.56
2019-04-07T08:14:41.465Z,98920.81
2019-04-07T08:17:12.283Z,98918.75
2019-04-07T08:19:45.356Z,98920.81
2019-04-07T08:22:27.498Z,98928.94
2019-04-07T08:24:51.929Z,98913.89
2019-04-07T08:27:21.649Z,98920.54
2019-04-07T08:29:53.833Z,98921.45
2019-04-07T08:32:29.647Z,98928.00
2019-04-07T08:35:02.727Z,98922.36
2019-04-07T08:37:30.794Z,98921.95
2019-04-07T08:40:04.304Z,98925.45
2019-04-07T08:42:32.953Z,98916.88
2019-04-07T08:45:03.448Z,98922.11
2019-04-07T08:47:34.522Z,98908.20
2019-04-07T08:50:05.092Z,98924.14
2019-04-07T08:52:38.483Z,98923.40
2019-04-07T08:55:08.007Z,98931.95
2019-04-07T08:57:38.305Z,98927.19
2019-04-07T09:00:15.044Z,98926.41
2019-04-07T09:02:43.855Z,98926.13
2019-04-07T09:05:14.618Z,98921.44
2019-04-07T09:07:44.956Z,98919.39
2019-04-07T09:10:21.790Z,98920.61
2019-04-07T09:12:52.359Z,98925.59
2019-04-07T09:15:30.081Z,98922.56
2019-04-07T09:18:12.720Z,98921.45
2019-04-07T09:20:49.272Z,98928.68
2019-04-07T09:23:28.350Z,98930.27
2019-04-07T09:26:05.566Z,98924.00
2019-04-07T09:29:12.923Z,98929.30
2019-04-07T09:31:50.908Z,98927.44
2019-04-07T09:34:38.138Z,98918.70
2019-04-07T09:37:31.095Z,98915.88
2019-04-07T09:40:09.359Z,98909.63
2019-04-07T09:43:00.004Z,98903.93
2019-04-07T09:45:38.561Z,98902.75
2019-04-07T09:48:22.915Z,98924.64
2019-04-07T09:51:16.474Z,98913.69
2019-04-07T09:54:24.012Z,98915.16
2019-04-07T09:57:11.374Z,98915.88
2019-04-07T09:59:56.501Z,98911.22
2019-04-07T10:02:37.270Z,98926.58
2019-04-07T10:05:21.426Z,98923.38
2019-04-07T10:08:13.962Z,98905.60
2019-04-07T10:11:06.046Z,98916.90
2019-04-07T10:13:53.720Z,98914.98
2019-04-07T10:16:43.847Z,98910.00
2019-04-07T10:19:32.767Z,98924.45
2019-04-07T10:22:28.763Z,98935.82
2019-04-07T10:25:09.189Z,98926.96
2019-04-07T10:27:55.509Z,98907.58
2019-04-07T10:30:54.080Z,98915.69
2019-04-07T10:33:42.742Z,98926.95
2019-04-07T10:36:34.975Z,98909.48
2019-04-07T10:39:29.257Z,98916.48
2019-04-07T10:42:13.740Z,98899.86
2019-04-07T10:45:01.267Z,98897.41
2019-04-07T10:47:56.720Z,98903.73
2019-04-07T10:51:04.531Z,98910.44
2019-04-07T10:53:57.211Z,98903.20
2019-04-07T10:56:37.598Z,98906.97
2019-04-07T10:59:26.825Z,98916.61
2019-04-07T11:02:04.078Z,98911.86
2019-04-07T11:04:55.195Z,98899.37
2019-04-07T11:07:42.079Z,98911.27
2019-04-07T11:10:39.443Z,98906.38
2019-04-07T11:13:38.724Z,98919.23
2019-04-07T11:16:14.893Z,98914.08
2019-04-07T11:19:07.799Z,98909.95
2019-04-07T11:21:45.701Z,98914.86
2019-04-07T11:24:36.981Z,98903.59
2019-04-07T11:27:33.704Z,98914.48
2019-04-07T11:30:33.232Z,98913.69
2019-04-07T11:33:40.416Z,98929.58
2019-04-07T11:36:23.462Z,98926.30
2019-04-07T11:39:11.953Z,98916.08
2019-04-07T11:41:53.506Z,98916.27
2019-04-07T11:44:42.672Z,98909.70
2019-04-07T11:47:21.220Z,98904.79
2019-04-07T11:50:07.161Z,98901.38
2019-04-07T11:52:56.318Z,98897.48
2019-04-07T11:55:44.274Z,98896.44
2019-04-07T11:58:31.356Z,98899.83
2019-04-07T12:01:15.639Z,98890.95
2019-04-07T12:03:55.088Z,98897.30
2019-04-07T12:06:36.476Z,98899.39
2019-04-07T12:09:24.563Z,98895.19
2019-04-07T12:12:12.676Z,98896.55
2019-04-07T12:15:08.474Z,98893.91
2019-04-07T12:17:56.250Z,98890.81
2019-04-07T12:20:46.182Z,98897.17
2019-04-07T12:23:34.004Z,98899.16
2019-04-07T12:26:17.089Z,98889.41
2019-04-07T12:28:56.021Z,98893.22
2019-04-07T12:31:48.676Z,98896.55
2019-04-07T12:34:31.034Z,98885.72
2019-04-07T12:37:14.408Z,98874.47
2019-04-07T12:40:04.331Z,98878.17
2019-04-07T12:42:44.425Z,98884.17
2019-04-07T12:45:37.042Z,98888.27
2019-04-07T12:48:14.522Z,98878.42
2019-04-07T12:50:54.110Z,98876.06
2019-04-07T12:53:36.044Z,98872.97
2019-04-07T12:56:19.441Z,98869.75
2019-04-07T12:58:57.486Z,98868.48
2019-04-07T13:01:49.213Z,98859.56
2019-04-07T13:04:32.196Z,98857.82
2019-04-07T13:07:21.789Z,98864.59
2019-04-07T13:10:02.675Z,98866.97
2019-04-07T13:12:55.826Z,98854.65
2019-04-07T13:15:47.525Z,98865.16
2019-04-07T13:18:38.955Z,98860.44
2019-04-07T13:21:44.682Z,98856.45
2019-04-07T13:24:35.180Z,98850.06
2019-04-07T13:27:29.702Z,98856.75
2019-04-07T13:30:17.053Z,98863.13
2019-04-07T13:33:05.583Z,98865.13
2019-04-07T13:35:55.110Z,98859.23
2019-04-07T13:38:51.234Z,98857.08
2019-04-07T13:41:38.577Z,98853.33
2019-04-07T13:44:16.161Z,98849.34
2019-04-07T13:46:59.243Z,98856.59
2019-04-07T13:49:48.351Z,98848.41
2019-04-07T13:52:37.144Z,98853.66
2019-04-07T13:55:21.956Z,98847.55
2019-04-07T13:58:11.977Z,98848.03
2019-04-07T14:00:50.596Z,98849.92
2019-04-07T14:03:50.396Z,98847.23
2019-04-07T14:06:29.504Z,98839.86
2019-04-07T14:09:18.015Z,98833.59
2019-04-07T14:12:10.629Z,98838.03
2019-04-07T14:14:57.053Z,98835.23
2019-04-07T14:18:05.843Z,98834.72
2019-04-07T14:21:01.082Z,98838.23
2019-04-07T14:23:55.716Z,98825.36
2019-04-07T14:26:43.473Z,98833.30
2019-04-07T14:29:39.482Z,98837.31
2019-04-07T14:32:49.412Z,98837.88
2019-04-07T14:35:47.698Z,98832.35
2019-04-07T14:38:35.618Z,98826.63
2019-04-07T14:41:13.878Z,98825.11
2019-04-07T14:44:06.967Z,98822.09
2019-04-07T14:46:58.011Z,98829.67
2019-04-07T14:49:46.171Z,98831.64
2019-04-07T14:52:33.191Z,98827.52
2019-04-07T14:55:22.662Z,98834.87
2019-04-07T14:58:15.261Z,98834.87
2019-04-07T15:01:06.722Z,98835.37
2019-04-07T15:03:36.659Z,98833.56
2019-04-07T15:06:07.573Z,98838.04
2019-04-07T15:08:49.748Z,98837.25
2019-04-07T15:11:33.761Z,98837.53
2019-04-07T15:14:04.518Z,98840.34
2019-04-07T15:16:35.106Z,98838.62
2019-04-07T15:19:05.722Z,98845.31
2019-04-07T15:21:36.295Z,98847.23
2019-04-07T15:24:08.482Z,98838.70
2019-04-07T15:26:39.000Z,98838.58
2019-04-07T15:29:10.785Z,98846.97
2019-04-07T15:31:41.878Z,98844.09
2019-04-07T15:34:14.093Z,98843.50
2019-04-07T15:36:48.000Z,98842.91
2019-04-07T15:39:18.209Z,98843.84
2019-04-07T15:41:49.502Z,98846.27
2019-04-07T15:44:20.718Z,98843.20
2019-04-07T15:46:53.253Z,98846.86
2019-04-07T15:49:26.118Z,98846.48
2019-04-07T15:51:55.164Z,98847.11
2019-04-07T15:54:25.512Z,98854.83
2019-04-07T15:56:57.955Z,98855.20
2019-04-07T15:59:29.746Z,98853.91
2019-04-07T16:02:01.258Z,98849.30
2019-04-07T16:04:31.964Z,98854.38
2019-04-07T16:07:06.373Z,98852.14
2019-04-07T16:09:48.753Z,98854.64
2019-04-07T16:12:08.718Z,98855.72
2019-04-07T16:14:40.281Z,98856.86
2019-04-07T16:17:12.071Z,98861.06
2019-04-07T16:19:44.390Z,98859.67
2019-04-07T16:22:15.489Z,98860.80
2019-04-07T16:24:46.304Z,98863.86
2019-04-07T16:27:17.265Z,98862.92
2019-04-07T16:29:47.935Z,98862.50
2019-04-07T16:32:19.881Z,98868.05
2019-04-07T16:34:53.065Z,98868.78
2019-04-07T16:37:29.089Z,98872.46
2019-04-07T16:39:58.731Z,98868.13
2019-04-07T16:42:29.787Z,98877.28
2019-04-07T16:45:01.827Z,98876.38
2019-04-07T16:47:34.679Z,98879.16
2019-04-07T16:50:04.300Z,98881.79
2019-04-07T16:52:35.254Z,98884.35
2019-04-07T16:55:07.062Z,98883.83
2019-04-07T16:57:38.613Z,98894.95
2019-04-07T17:00:14.375Z,98885.32
2019-04-07T17:02:46.077Z,98892.49
2019-04-07T17:05:19.201Z,98892.01
2019-04-07T17:07:48.495Z,98889.96
2019-04-07T17:10:19.724Z,98895.43
2019-04-07T17:12:50.087Z,98904.40
2019-04-07T17:15:21.172Z,98898.30
2019-04-07T17:17:53.290Z,98899.83
2019-04-07T17:20:27.882Z,98904.21
2019-04-07T17:22:56.852Z,98910.80
2019-04-07T17:25:27.261Z,98911.58
2019-04-07T17:28:02.454Z,98906.13
2019-04-07T17:30:31.299Z,98907.75
2019-04-07T17:33:03.234Z,98914.81
2019-04-07T17:35:33.698Z,98910.97
2019-04-07T17:38:06.943Z,98911.66
2019-04-07T17:40:45.225Z,98910.97
2019-04-07T17:43:39.211Z,98918.58
2019-04-07T17:46:15.024Z,98915.31
2019-04-07T17:48:56.769Z,98923.16
2019-04-07T17:51:41.080Z,98928.17
2019-04-07T17:54:21.470Z,98927.92
2019-04-07T17:57:12.286Z,98932.69
2019-04-07T18:00:04.675Z,98930.64
2019-04-07T18:03:05.193Z,98938.53
2019-04-07T18:06:03.763Z,98943.00
2019-04-07T18:09:04.655Z,98943.80
2019-04-07T18:11:42.971Z,98943.92
2019-04-07T18:14:28.701Z,98945.20
2019-04-07T18:17:16.936Z,98947.38
2019-04-07T18:20:21.161Z,98946.92
2019-04-07T18:23:05.921Z,98953.90
2019-04-07T18:25:45.939Z,98958.13
2019-04-07T18:28:34.268Z,98959.05
2019-04-07T18:31:26.344Z,98964.80
2019-04-07T18:34:15.540Z,98968.36
2019-04-07T18:37:00.038Z,98966.97
2019-04-07T18:39:44.946Z,98970.73
2019-04-07T18:42:33.444Z,98973.55
2019-04-07T18:45:12.717Z,98980.13
2019-04-07T18:48:09.262Z,98984.36
2019-04-07T18:50:49.979Z,98989.70
2019-04-07T18:53:38.625Z,98993.91
2019-04-07T18:56:21.379Z,98998.98
2019-04-07T18:59:02.327Z,99005.28
2019-04-07T19:01:49.953Z,99001.87
2019-04-07T19:04:51.110Z,99009.94
2019-04-07T19:07:48.546Z,99019.11
2019-04-07T19:10:30.043Z,99012.72
2019-04-07T19:13:27.241Z,99019.48
2019-04-07T19:16:25.030Z,99018.17
2019-04-07T19:19:29.764Z,99021.89
2019-04-07T19:22:20.090Z,99023.57
2019-04-07T19:25:17.181Z,99025.81
2019-04-07T19:28:01.015Z,99025.48
2019-04-07T19:30:55.665Z,99026.20
2019-04-07T19:33:38.048Z,99030.05
2019-04-07T19:36:33.035Z,99028.94
2019-04-07T19:39:42.533Z,99034.59
2019-04-07T19:42:30.594Z,99034.06
2019-04-07T19:45:11.188Z,99036.97
2019-04-07T19:47:59.365Z,99041.17
2019-04-07T19:50:58.948Z,99036.97
2019-04-07T19:53:49.302Z,99039.94
2019-04-07T19:56:47.887Z,99037.17
2019-04-07T19:59:48.834Z,99034.15
2019-04-07T20:02:39.177Z,99035.70
2019-04-07T20:05:19.758Z,99034.95
2019-04-07T20:08:11.989Z,99038.88
2019-04-07T20:10:51.789Z,99039.95
2019-04-07T20:13:50.724Z,99034.50
2019-04-07T20:16:31.202Z,99042.53
2019-04-07T20:19:41.113Z,99037.09
2019-04-07T20:22:35.753Z,99045.19
2019-04-07T20:25:24.565Z,99040.97
2019-04-07T20:28:05.192Z,99039.89
2019-04-07T20:30:48.574Z,99036.48
2019-04-07T20:33:40.017Z,99040.41
2019-04-07T20:36:29.332Z,99040.78
2019-04-07T20:39:17.468Z,99037.16
2019-04-07T20:41:59.678Z,99034.58
2019-04-07T20:44:41.143Z,99036.59
2019-04-07T20:47:42.821Z,99039.92
2019-04-07T20:50:35.551Z,99044.61
2019-04-07T20:53:24.067Z,99039.12
2019-04-07T20:56:04.514Z,99038.91
2019-04-07T20:58:57.970Z,99036.08
2019-04-07T21:01:53.979Z,99043.06
2019-04-07T21:04:33.190Z,99040.77
2019-04-07T21:07:23.421Z,99049.61
2019-04-07T21:10:17.891Z,99053.47
2019-04-07T21:13:04.745Z,99050.77
2019-04-07T21:15:53.099Z,99062.73
2019-04-07T21:18:41.217Z,99061.05
2019-04-07T21:21:34.483Z,99055.99
2019-04-07T21:24:33.530Z,99065.23
2019-04-07T21:27:12.241Z,99065.02
2019-04-07T21:29:53.724Z,99066.40
2019-04-07T21:32:34.048Z,99062.18
2019-04-07T21:35:35.083Z,99062.00
2019-04-07T21:38:23.195Z,99065.63
2019-04-07T21:41:12.236Z,99075.01
2019-04-07T21:43:59.674Z,99072.86
2019-04-07T21:46:40.938Z,99069.02
2019-04-07T21:49:23.220Z,99065.02
2019-04-07T21:51:58.970Z,99073.88
2019-04-07T21:54:40.891Z,99070.65
2019-04-07T21:57:33.109Z,99069.09
2019-04-07T22:00:29.132Z,99072.17
2019-04-07T22:03:25.423Z,99073.01
2019-04-07T22:06:17.780Z,99073.77
2019-04-07T22:08:59.100Z,99072.32
2019-04-07T22:11:30.457Z,99070.86
2019-04-07T22:14:04.124Z,99072.64
2019-04-07T22:16:34.235Z,99074.03
2019-04-07T22:19:09.371Z,99073.09
2019-04-07T22:21:36.807Z,99078.47
2019-04-07T22:24:07.081Z,99077.34
2019-04-07T22:26:37.434Z,99081.01
2019-04-07T22:29:07.777Z,99080.72
2019-04-07T22:31:47.853Z,99085.48
2019-04-07T22:34:18.643Z,99089.04
2019-04-07T22:36:49.681Z,99084.94
2019-04-07T22:39:20.570Z,99091.66
2019-04-07T22:41:50.829Z,99089.33
2019-04-07T22:44:22.233Z,99096.81
2019-04-07T22:46:53.128Z,99090.27
2019-04-07T22:49:23.504Z,99089.49
2019-04-07T22:51:55.447Z,99086.24
2019-04-07T22:54:29.505Z,99090.02
2019-04-07T22:56:57.845Z,99083.48
2019-04-07T22:59:28.146Z,99089.09
2019-04-07T23:01:59.775Z,99091.47
2019-04-07T23:04:30.190Z,99099.67
2019-04-07T23:07:01.187Z,99100.89
2019-04-07T23:09:31.603Z,99100.89
2019-04-07T23:12:03.264Z,99103.77
2019-04-07T23:14:34.227Z,99109.44
2019-04-07T23:17:04.577Z,99111.75
2019-04-07T23:19:34.842Z,99106.52
2019-04-07T23:22:05.449Z,99103.91
2019-04-07T23:24:36.719Z,99105.05
2019-04-07T23:27:08.204Z,99099.19
2019-04-07T23:29:38.786Z,99093.09
2019-04-07T23:32:09.662Z,99093.94
2019-04-07T23:34:39.937Z,99095.77
2019-04-07T23:37:10.938Z,99103.28
2019-04-07T23:39:41.900Z,99114.70
2019-04-07T23:42:12.599Z,99116.08
2019-04-07T23:44:43.667Z,99123.86
2019-04-07T23:47:14.061Z,99114.30
2019-04-07T23:49:44.745Z,99117.78
2019-04-07T23:52:14.939Z,99117.39
2019-04-07T23:54:45.955Z,99119.47
2019-04-07T23:57:17.738Z,99123.72
2019-04-07T23:59:48.593Z,99113.87
